SBCP/CAW METAR and TAF weather

Enter ICAO airport designator
Station Type Date Time Source
SBCP METAR 2022/05/24 21:00 UTC NOAA

SBCP 242100Z 09006KT CAVOK 22/18 Q1023


Station Type Date Time Source
SBCP Decoded METAR 2022/05/24 21:00 UTC NOAA

Campos, Brazil (SBCP) 21-45S 041-20W 11M
May 24, 2022 - 05:00 PM EDT / 2022.05.24 2100 UTC
Wind: from the E (090 degrees) at 7 MPH (6 KT):0
Visibility: greater than 7 mile(s):0
Temperature: 71 F (22 C)
Dew Point: 64 F (18 C)
Relative Humidity: 78%
Pressure (altimeter): 30.21 in. Hg (1023 hPa)
ob: SBCP 242100Z 09006KT CAVOK 22/18 Q1023
cycle: 21

Station Type Date Time Source
SBCP TAF 2022/05/24 18:10 UTC NOAA

TAF SBCP 241500Z 2418/2506 09010KT 9999 FEW020 TX26/2418Z TN21/2421Z
RMK PHD

Example: see airport list